sensor_id;sensor_type;location;lat;lon;timestamp;temperature;humidity
5592;DHT22;2818;49.790;9.958;2022-09-13T00:01:26;16.20;99.90
5592;DHT22;2818;49.790;9.958;2022-09-13T00:03:53;16.10;1.00
5592;DHT22;2818;49.790;9.958;2022-09-13T00:06:21;16.10;1.00
5592;DHT22;2818;49.790;9.958;2022-09-13T00:08:48;16.00;1.00
5592;DHT22;2818;49.790;9.958;2022-09-13T00:11:24;16.10;1.00
5592;DHT22;2818;49.790;9.958;2022-09-13T00:13:52;16.10;1.00
5592;DHT22;2818;49.790;9.958;2022-09-13T00:16:21;16.00;1.00
5592;DHT22;2818;49.790;9.958;2022-09-13T00:18:51;15.90;1.00
5592;DHT22;2818;49.790;9.958;2022-09-13T00:21:20;16.00;1.00
5592;DHT22;2818;49.790;9.958;2022-09-13T00:23:49;15.90;1.00
5592;DHT22;2818;49.790;9.958;2022-09-13T00:26:22;15.90;1.00
5592;DHT22;2818;49.790;9.958;2022-09-13T00:28:52;15.80;1.00
5592;DHT22;2818;49.790;9.958;2022-09-13T00:31:20;15.80;1.00
5592;DHT22;2818;49.790;9.958;2022-09-13T00:33:47;15.80;1.00
5592;DHT22;2818;49.790;9.958;2022-09-13T00:36:14;15.80;1.00
5592;DHT22;2818;49.790;9.958;2022-09-13T00:38:42;15.80;1.00
5592;DHT22;2818;49.790;9.958;2022-09-13T00:41:12;15.80;1.00
5592;DHT22;2818;49.790;9.958;2022-09-13T00:43:50;15.80;1.00
5592;DHT22;2818;49.790;9.958;2022-09-13T00:46:42;15.70;1.00
5592;DHT22;2818;49.790;9.958;2022-09-13T00:49:30;15.70;1.00
5592;DHT22;2818;49.790;9.958;2022-09-13T00:52:04;15.70;1.00
5592;DHT22;2818;49.790;9.958;2022-09-13T00:54:55;15.70;1.00
5592;DHT22;2818;49.790;9.958;2022-09-13T00:57:24;15.60;1.00
5592;DHT22;2818;49.790;9.958;2022-09-13T01:00:04;15.50;1.00
5592;DHT22;2818;49.790;9.958;2022-09-13T01:02:48;15.40;1.00
5592;DHT22;2818;49.790;9.958;2022-09-13T01:05:17;15.40;1.00
5592;DHT22;2818;49.790;9.958;2022-09-13T01:07:45;15.40;1.00
5592;DHT22;2818;49.790;9.958;2022-09-13T01:10:12;15.40;1.00
5592;DHT22;2818;49.790;9.958;2022-09-13T01:13:00;15.30;1.00
5592;DHT22;2818;49.790;9.958;2022-09-13T01:15:32;15.30;1.00
5592;DHT22;2818;49.790;9.958;2022-09-13T01:17:59;15.30;1.00
5592;DHT22;2818;49.790;9.958;2022-09-13T01:34:44;15.20;1.00
5592;DHT22;2818;49.790;9.958;2022-09-13T01:40:31;15.20;1.00
5592;DHT22;2818;49.790;9.958;2022-09-13T01:46:17;15.10;1.00
5592;DHT22;2818;49.790;9.958;2022-09-13T01:48:54;15.10;1.00
5592;DHT22;2818;49.790;9.958;2022-09-13T01:51:37;15.10;1.00
5592;DHT22;2818;49.790;9.958;2022-09-13T01:54:19;15.10;1.00
5592;DHT22;2818;49.790;9.958;2022-09-13T01:57:13;15.00;1.00
5592;DHT22;2818;49.790;9.958;2022-09-13T02:00:09;14.90;1.00
5592;DHT22;2818;49.790;9.958;2022-09-13T02:08:14;14.80;1.00
5592;DHT22;2818;49.790;9.958;2022-09-13T02:11:12;14.80;1.00
5592;DHT22;2818;49.790;9.958;2022-09-13T02:14:00;14.80;1.00
5592;DHT22;2818;49.790;9.958;2022-09-13T02:16:43;14.80;1.00
5592;DHT22;2818;49.790;9.958;2022-09-13T02:22:05;14.80;1.00
5592;DHT22;2818;49.790;9.958;2022-09-13T02:24:36;14.70;1.00
5592;DHT22;2818;49.790;9.958;2022-09-13T02:27:10;14.70;1.00
5592;DHT22;2818;49.790;9.958;2022-09-13T02:29:39;14.70;1.00
5592;DHT22;2818;49.790;9.958;2022-09-13T02:34:45;14.60;1.00
5592;DHT22;2818;49.790;9.958;2022-09-13T02:37:14;14.50;1.00
5592;DHT22;2818;49.790;9.958;2022-09-13T02:39:45;14.50;1.00
5592;DHT22;2818;49.790;9.958;2022-09-13T02:42:18;14.50;1.00
5592;DHT22;2818;49.790;9.958;2022-09-13T02:44:56;14.50;1.00
5592;DHT22;2818;49.790;9.958;2022-09-13T02:55:22;14.40;1.00
5592;DHT22;2818;49.790;9.958;2022-09-13T03:00:32;14.40;1.00
5592;DHT22;2818;49.790;9.958;2022-09-13T03:03:03;14.40;1.00
5592;DHT22;2818;49.790;9.958;2022-09-13T03:05:30;14.40;1.00
5592;DHT22;2818;49.790;9.958;2022-09-13T03:07:58;14.40;1.00
5592;DHT22;2818;49.790;9.958;2022-09-13T03:10:31;14.40;1.00
5592;DHT22;2818;49.790;9.958;2022-09-13T03:13:10;14.40;1.00
5592;DHT22;2818;49.790;9.958;2022-09-13T03:34:50;14.10;31.50
5592;DHT22;2818;49.790;9.958;2022-09-13T03:37:35;14.10;45.30
5592;DHT22;2818;49.790;9.958;2022-09-13T03:40:12;14.00;53.80
5592;DHT22;2818;49.790;9.958;2022-09-13T03:42:50;14.00;29.80
5592;DHT22;2818;49.790;9.958;2022-09-13T03:45:23;13.90;22.90
5592;DHT22;2818;49.790;9.958;2022-09-13T03:47:52;13.90;21.60
5592;DHT22;2818;49.790;9.958;2022-09-13T03:50:22;13.80;21.00
5592;DHT22;2818;49.790;9.958;2022-09-13T03:53:06;13.80;24.00
5592;DHT22;2818;49.790;9.958;2022-09-13T03:55:39;13.80;27.00
5592;DHT22;2818;49.790;9.958;2022-09-13T03:58:12;13.90;13.90
5592;DHT22;2818;49.790;9.958;2022-09-13T04:00:39;13.90;6.50
5592;DHT22;2818;49.790;9.958;2022-09-13T04:03:07;13.90;1.80
5592;DHT22;2818;49.790;9.958;2022-09-13T04:05:35;13.90;12.90
5592;DHT22;2818;49.790;9.958;2022-09-13T04:08:03;13.80;6.70
5592;DHT22;2818;49.790;9.958;2022-09-13T04:10:34;13.80;5.60
5592;DHT22;2818;49.790;9.958;2022-09-13T04:13:02;13.80;2.30
5592;DHT22;2818;49.790;9.958;2022-09-13T04:15:30;13.90;9.40
5592;DHT22;2818;49.790;9.958;2022-09-13T04:17:57;13.80;5.80
5592;DHT22;2818;49.790;9.958;2022-09-13T04:20:25;13.80;3.50
5592;DHT22;2818;49.790;9.958;2022-09-13T04:22:53;13.80;6.80
5592;DHT22;2818;49.790;9.958;2022-09-13T04:25:21;13.90;5.30
5592;DHT22;2818;49.790;9.958;2022-09-13T04:27:53;13.80;7.50
5592;DHT22;2818;49.790;9.958;2022-09-13T04:30:21;13.80;9.00
5592;DHT22;2818;49.790;9.958;2022-09-13T04:32:49;13.80;6.20
5592;DHT22;2818;49.790;9.958;2022-09-13T04:35:16;13.80;11.90
5592;DHT22;2818;49.790;9.958;2022-09-13T04:37:45;13.70;32.60
5592;DHT22;2818;49.790;9.958;2022-09-13T04:40:12;13.70;29.00
5592;DHT22;2818;49.790;9.958;2022-09-13T04:42:40;13.70;35.70
5592;DHT22;2818;49.790;9.958;2022-09-13T04:45:09;13.70;46.80
5592;DHT22;2818;49.790;9.958;2022-09-13T04:47:36;13.80;50.40
5592;DHT22;2818;49.790;9.958;2022-09-13T04:50:04;13.80;56.30
5592;DHT22;2818;49.790;9.958;2022-09-13T04:52:30;13.80;58.40
5592;DHT22;2818;49.790;9.958;2022-09-13T04:54:57;13.80;74.70
5592;DHT22;2818;49.790;9.958;2022-09-13T04:57:27;13.80;74.40
5592;DHT22;2818;49.790;9.958;2022-09-13T04:59:54;13.80;91.60
5592;DHT22;2818;49.790;9.958;2022-09-13T05:02:21;13.80;90.40
5592;DHT22;2818;49.790;9.958;2022-09-13T05:04:48;13.80;93.20
5592;DHT22;2818;49.790;9.958;2022-09-13T05:07:15;13.90;93.50
5592;DHT22;2818;49.790;9.958;2022-09-13T05:09:43;13.90;85.80
5592;DHT22;2818;49.790;9.958;2022-09-13T05:12:10;13.90;93.60
5592;DHT22;2818;49.790;9.958;2022-09-13T05:14:37;13.90;91.50
5592;DHT22;2818;49.790;9.958;2022-09-13T05:17:04;14.00;92.00
5592;DHT22;2818;49.790;9.958;2022-09-13T05:19:31;14.00;85.90
5592;DHT22;2818;49.790;9.958;2022-09-13T05:21:58;14.10;50.20
5592;DHT22;2818;49.790;9.958;2022-09-13T05:24:25;14.10;30.00
5592;DHT22;2818;49.790;9.958;2022-09-13T05:26:52;14.10;35.40
5592;DHT22;2818;49.790;9.958;2022-09-13T05:29:19;14.10;21.20
5592;DHT22;2818;49.790;9.958;2022-09-13T05:31:46;14.00;16.60
5592;DHT22;2818;49.790;9.958;2022-09-13T05:34:15;14.00;17.90
5592;DHT22;2818;49.790;9.958;2022-09-13T05:36:45;13.90;24.90
5592;DHT22;2818;49.790;9.958;2022-09-13T05:39:19;14.00;26.60
5592;DHT22;2818;49.790;9.958;2022-09-13T05:42:07;14.00;46.10
5592;DHT22;2818;49.790;9.958;2022-09-13T05:44:34;14.00;33.20
5592;DHT22;2818;49.790;9.958;2022-09-13T05:47:02;14.00;21.90
5592;DHT22;2818;49.790;9.958;2022-09-13T05:49:29;14.00;21.00
5592;DHT22;2818;49.790;9.958;2022-09-13T05:51:56;14.00;19.60
5592;DHT22;2818;49.790;9.958;2022-09-13T05:54:23;14.00;8.30
5592;DHT22;2818;49.790;9.958;2022-09-13T05:56:50;14.10;17.70
5592;DHT22;2818;49.790;9.958;2022-09-13T05:59:20;14.10;1.00
5592;DHT22;2818;49.790;9.958;2022-09-13T06:01:47;14.10;1.00
5592;DHT22;2818;49.790;9.958;2022-09-13T06:04:14;14.20;1.00
5592;DHT22;2818;49.790;9.958;2022-09-13T06:06:41;14.20;1.00
5592;DHT22;2818;49.790;9.958;2022-09-13T06:09:10;14.30;1.00
5592;DHT22;2818;49.790;9.958;2022-09-13T06:11:37;14.30;1.00
5592;DHT22;2818;49.790;9.958;2022-09-13T06:14:04;14.40;1.00
5592;DHT22;2818;49.790;9.958;2022-09-13T06:16:31;14.30;1.00
5592;DHT22;2818;49.790;9.958;2022-09-13T06:18:58;14.30;1.00
5592;DHT22;2818;49.790;9.958;2022-09-13T06:21:26;14.30;1.00
5592;DHT22;2818;49.790;9.958;2022-09-13T06:23:55;14.40;1.00
5592;DHT22;2818;49.790;9.958;2022-09-13T06:26:24;14.40;1.00
5592;DHT22;2818;49.790;9.958;2022-09-13T06:28:53;14.40;1.00
5592;DHT22;2818;49.790;9.958;2022-09-13T06:31:23;14.50;1.00
5592;DHT22;2818;49.790;9.958;2022-09-13T06:33:58;14.50;1.00
5592;DHT22;2818;49.790;9.958;2022-09-13T06:36:26;14.50;1.00
5592;DHT22;2818;49.790;9.958;2022-09-13T06:38:53;14.50;1.00
5592;DHT22;2818;49.790;9.958;2022-09-13T06:41:22;14.60;1.00
5592;DHT22;2818;49.790;9.958;2022-09-13T06:43:54;14.60;1.00
5592;DHT22;2818;49.790;9.958;2022-09-13T06:46:24;14.70;1.00
5592;DHT22;2818;49.790;9.958;2022-09-13T06:48:52;14.70;1.00
5592;DHT22;2818;49.790;9.958;2022-09-13T06:51:23;14.80;1.00
5592;DHT22;2818;49.790;9.958;2022-09-13T06:53:52;14.90;1.00
5592;DHT22;2818;49.790;9.958;2022-09-13T06:56:27;15.00;1.00
5592;DHT22;2818;49.790;9.958;2022-09-13T06:58:56;15.00;1.00
5592;DHT22;2818;49.790;9.958;2022-09-13T07:01:28;15.10;1.00
5592;DHT22;2818;49.790;9.958;2022-09-13T07:04:07;15.10;1.00
5592;DHT22;2818;49.790;9.958;2022-09-13T07:06:37;15.10;1.00
5592;DHT22;2818;49.790;9.958;2022-09-13T07:09:05;15.30;1.00
5592;DHT22;2818;49.790;9.958;2022-09-13T07:11:35;15.30;1.00
5592;DHT22;2818;49.790;9.958;2022-09-13T07:14:03;15.30;1.00
5592;DHT22;2818;49.790;9.958;2022-09-13T07:16:36;15.40;1.00
5592;DHT22;2818;49.790;9.958;2022-09-13T07:19:06;15.50;1.00
5592;DHT22;2818;49.790;9.958;2022-09-13T07:21:34;15.60;1.00
5592;DHT22;2818;49.790;9.958;2022-09-13T07:24:02;15.70;1.00
5592;DHT22;2818;49.790;9.958;2022-09-13T07:26:29;15.80;1.00
5592;DHT22;2818;49.790;9.958;2022-09-13T07:28:59;15.90;1.00
5592;DHT22;2818;49.790;9.958;2022-09-13T07:31:29;16.00;1.00
5592;DHT22;2818;49.790;9.958;2022-09-13T07:34:01;16.10;1.00
5592;DHT22;2818;49.790;9.958;2022-09-13T07:36:31;16.10;1.00
5592;DHT22;2818;49.790;9.958;2022-09-13T07:38:58;16.20;1.00
5592;DHT22;2818;49.790;9.958;2022-09-13T07:41:27;16.20;1.00
5592;DHT22;2818;49.790;9.958;2022-09-13T07:43:55;16.30;1.00
5592;DHT22;2818;49.790;9.958;2022-09-13T07:46:24;16.30;1.00
5592;DHT22;2818;49.790;9.958;2022-09-13T07:48:53;16.30;99.90
5592;DHT22;2818;49.790;9.958;2022-09-13T07:51:22;16.30;99.90
5592;DHT22;2818;49.790;9.958;2022-09-13T07:53:51;16.40;99.90
5592;DHT22;2818;49.790;9.958;2022-09-13T07:56:34;16.50;99.90
5592;DHT22;2818;49.790;9.958;2022-09-13T07:59:03;16.60;99.90
5592;DHT22;2818;49.790;9.958;2022-09-13T08:01:36;16.60;99.90
5592;DHT22;2818;49.790;9.958;2022-09-13T08:04:13;16.70;1.00
5592;DHT22;2818;49.790;9.958;2022-09-13T08:06:43;16.70;1.00
5592;DHT22;2818;49.790;9.958;2022-09-13T08:09:10;16.90;1.00
5592;DHT22;2818;49.790;9.958;2022-09-13T08:11:46;16.90;1.00
5592;DHT22;2818;49.790;9.958;2022-09-13T08:14:16;16.90;99.90
5592;DHT22;2818;49.790;9.958;2022-09-13T08:16:43;16.90;1.00
5592;DHT22;2818;49.790;9.958;2022-09-13T08:19:17;16.90;5.30
5592;DHT22;2818;49.790;9.958;2022-09-13T08:21:45;17.00;1.00
5592;DHT22;2818;49.790;9.958;2022-09-13T08:24:15;16.90;1.00
5592;DHT22;2818;49.790;9.958;2022-09-13T08:26:42;17.00;1.00
5592;DHT22;2818;49.790;9.958;2022-09-13T08:29:10;17.10;1.00
5592;DHT22;2818;49.790;9.958;2022-09-13T08:31:38;17.10;1.00
5592;DHT22;2818;49.790;9.958;2022-09-13T08:34:09;17.20;99.90
5592;DHT22;2818;49.790;9.958;2022-09-13T08:36:37;17.40;90.40
5592;DHT22;2818;49.790;9.958;2022-09-13T08:39:06;17.40;1.00
5592;DHT22;2818;49.790;9.958;2022-09-13T08:46:49;17.60;1.00
5592;DHT22;2818;49.790;9.958;2022-09-13T08:49:24;17.70;99.90
5592;DHT22;2818;49.790;9.958;2022-09-13T08:54:47;17.90;99.90
5592;DHT22;2818;49.790;9.958;2022-09-13T08:57:21;18.00;25.50
5592;DHT22;2818;49.790;9.958;2022-09-13T09:03:01;18.10;1.00
5592;DHT22;2818;49.790;9.958;2022-09-13T09:05:32;18.20;1.00
5592;DHT22;2818;49.790;9.958;2022-09-13T09:08:09;18.30;1.00
5592;DHT22;2818;49.790;9.958;2022-09-13T09:10:44;18.40;1.00
5592;DHT22;2818;49.790;9.958;2022-09-13T09:13:26;18.50;1.00
5592;DHT22;2818;49.790;9.958;2022-09-13T09:16:03;18.50;64.80
5592;DHT22;2818;49.790;9.958;2022-09-13T09:18:39;18.40;99.90
5592;DHT22;2818;49.790;9.958;2022-09-13T09:21:15;18.30;1.00
5592;DHT22;2818;49.790;9.958;2022-09-13T09:23:50;18.20;1.00
5592;DHT22;2818;49.790;9.958;2022-09-13T09:26:23;18.20;1.00
5592;DHT22;2818;49.790;9.958;2022-09-13T09:29:05;18.20;1.00
5592;DHT22;2818;49.790;9.958;2022-09-13T09:31:57;18.40;1.00
5592;DHT22;2818;49.790;9.958;2022-09-13T09:34:51;18.50;99.90
5592;DHT22;2818;49.790;9.958;2022-09-13T09:37:27;18.70;99.90
5592;DHT22;2818;49.790;9.958;2022-09-13T09:39:58;18.90;1.00
5592;DHT22;2818;49.790;9.958;2022-09-13T09:42:31;19.10;99.90
5592;DHT22;2818;49.790;9.958;2022-09-13T09:45:03;19.50;1.00
5592;DHT22;2818;49.790;9.958;2022-09-13T09:47:43;19.90;47.50
5592;DHT22;2818;49.790;9.958;2022-09-13T09:50:18;20.40;99.90
5592;DHT22;2818;49.790;9.958;2022-09-13T09:55:46;21.50;1.00
5592;DHT22;2818;49.790;9.958;2022-09-13T09:58:16;21.80;1.00
5592;DHT22;2818;49.790;9.958;2022-09-13T10:00:56;22.40;1.00
5592;DHT22;2818;49.790;9.958;2022-09-13T10:03:26;23.80;99.90
5592;DHT22;2818;49.790;9.958;2022-09-13T10:08:36;25.00;99.90
5592;DHT22;2818;49.790;9.958;2022-09-13T10:11:05;25.50;90.00
5592;DHT22;2818;49.790;9.958;2022-09-13T10:13:33;26.20;50.00
5592;DHT22;2818;49.790;9.958;2022-09-13T10:16:05;26.50;6.20
5592;DHT22;2818;49.790;9.958;2022-09-13T10:18:35;26.50;6.50
5592;DHT22;2818;49.790;9.958;2022-09-13T10:23:45;25.70;16.00
5592;DHT22;2818;49.790;9.958;2022-09-13T10:26:23;25.40;22.60
5592;DHT22;2818;49.790;9.958;2022-09-13T10:31:19;24.30;53.00
5592;DHT22;2818;49.790;9.958;2022-09-13T10:39:07;22.70;99.90
5592;DHT22;2818;49.790;9.958;2022-09-13T10:41:39;22.20;99.90
5592;DHT22;2818;49.790;9.958;2022-09-13T10:44:33;21.90;99.90
5592;DHT22;2818;49.790;9.958;2022-09-13T10:47:05;21.60;1.00
5592;DHT22;2818;49.790;9.958;2022-09-13T10:49:46;21.50;1.00
5592;DHT22;2818;49.790;9.958;2022-09-13T10:52:34;21.10;1.00
5592;DHT22;2818;49.790;9.958;2022-09-13T10:57:48;20.80;1.00
5592;DHT22;2818;49.790;9.958;2022-09-13T11:00:21;20.60;99.90
5592;DHT22;2818;49.790;9.958;2022-09-13T11:10:49;20.40;1.00
5592;DHT22;2818;49.790;9.958;2022-09-13T11:21:44;20.20;1.00
5592;DHT22;2818;49.790;9.958;2022-09-13T11:27:57;20.10;1.00
5592;DHT22;2818;49.790;9.958;2022-09-13T11:30:19;20.10;1.00
5592;DHT22;2818;49.790;9.958;2022-09-13T11:33:21;20.10;1.00
5592;DHT22;2818;49.790;9.958;2022-09-13T11:35:58;20.20;1.00
5592;DHT22;2818;49.790;9.958;2022-09-13T11:44:18;20.20;99.90
5592;DHT22;2818;49.790;9.958;2022-09-13T11:56:08;20.20;1.00
5592;DHT22;2818;49.790;9.958;2022-09-13T11:59:07;20.20;1.00
5592;DHT22;2818;49.790;9.958;2022-09-13T12:01:46;20.30;1.00
5592;DHT22;2818;49.790;9.958;2022-09-13T12:04:23;20.40;1.00
5592;DHT22;2818;49.790;9.958;2022-09-13T12:07:02;20.40;1.00
5592;DHT22;2818;49.790;9.958;2022-09-13T12:09:37;20.40;1.00
5592;DHT22;2818;49.790;9.958;2022-09-13T12:12:14;20.40;1.00
5592;DHT22;2818;49.790;9.958;2022-09-13T12:15:15;20.50;1.00
5592;DHT22;2818;49.790;9.958;2022-09-13T12:17:46;20.70;1.00
5592;DHT22;2818;49.790;9.958;2022-09-13T12:20:29;20.80;99.90
5592;DHT22;2818;49.790;9.958;2022-09-13T12:22:59;20.90;1.00
5592;DHT22;2818;49.790;9.958;2022-09-13T12:25:45;21.10;1.00
5592;DHT22;2818;49.790;9.958;2022-09-13T12:31:04;21.40;1.00
5592;DHT22;2818;49.790;9.958;2022-09-13T12:33:38;21.60;1.00
5592;DHT22;2818;49.790;9.958;2022-09-13T12:49:20;22.30;1.00
5592;DHT22;2818;49.790;9.958;2022-09-13T13:05:03;21.60;1.00
5592;DHT22;2818;49.790;9.958;2022-09-13T13:07:34;21.60;99.90
5592;DHT22;2818;49.790;9.958;2022-09-13T13:10:03;21.60;8.10
5592;DHT22;2818;49.790;9.958;2022-09-13T13:12:37;21.60;1.00
5592;DHT22;2818;49.790;9.958;2022-09-13T13:17:52;21.70;25.50
5592;DHT22;2818;49.790;9.958;2022-09-13T13:23:38;21.90;1.00
5592;DHT22;2818;49.790;9.958;2022-09-13T13:26:50;22.00;1.00
5592;DHT22;2818;49.790;9.958;2022-09-13T13:29:32;22.30;26.30
5592;DHT22;2818;49.790;9.958;2022-09-13T13:39:41;22.80;99.90
5592;DHT22;2818;49.790;9.958;2022-09-13T13:42:25;22.80;99.90
5592;DHT22;2818;49.790;9.958;2022-09-13T13:49:53;22.70;1.00
5592;DHT22;2818;49.790;9.958;2022-09-13T13:52:54;22.80;1.00
5592;DHT22;2818;49.790;9.958;2022-09-13T13:58:00;22.90;1.00
5592;DHT22;2818;49.790;9.958;2022-09-13T14:00:29;23.00;1.00
5592;DHT22;2818;49.790;9.958;2022-09-13T14:19:50;22.70;99.90
5592;DHT22;2818;49.790;9.958;2022-09-13T14:22:28;22.70;99.90
5592;DHT22;2818;49.790;9.958;2022-09-13T14:24:57;22.70;99.90
5592;DHT22;2818;49.790;9.958;2022-09-13T14:27:34;22.70;99.90
5592;DHT22;2818;49.790;9.958;2022-09-13T14:32:47;22.50;99.90
5592;DHT22;2818;49.790;9.958;2022-09-13T14:38:23;22.50;99.90
5592;DHT22;2818;49.790;9.958;2022-09-13T14:40:58;22.50;99.90
5592;DHT22;2818;49.790;9.958;2022-09-13T14:43:27;22.50;99.90
5592;DHT22;2818;49.790;9.958;2022-09-13T14:46:16;22.60;99.90
5592;DHT22;2818;49.790;9.958;2022-09-13T14:49:01;22.60;99.90
5592;DHT22;2818;49.790;9.958;2022-09-13T14:51:51;22.60;99.90
5592;DHT22;2818;49.790;9.958;2022-09-13T14:57:02;22.60;99.90
5592;DHT22;2818;49.790;9.958;2022-09-13T14:59:35;22.60;99.90
5592;DHT22;2818;49.790;9.958;2022-09-13T15:02:17;22.70;99.90
5592;DHT22;2818;49.790;9.958;2022-09-13T15:04:51;22.80;99.90
5592;DHT22;2818;49.790;9.958;2022-09-13T15:07:29;22.80;99.90
5592;DHT22;2818;49.790;9.958;2022-09-13T15:12:36;22.90;99.90
5592;DHT22;2818;49.790;9.958;2022-09-13T15:17:57;23.00;99.90
5592;DHT22;2818;49.790;9.958;2022-09-13T15:20:28;23.10;99.90
5592;DHT22;2818;49.790;9.958;2022-09-13T15:22:55;23.10;99.90
5592;DHT22;2818;49.790;9.958;2022-09-13T15:25:26;23.10;55.80
5592;DHT22;2818;49.790;9.958;2022-09-13T15:27:55;23.20;99.90
5592;DHT22;2818;49.790;9.958;2022-09-13T15:30:28;23.30;99.90
5592;DHT22;2818;49.790;9.958;2022-09-13T15:35:39;23.10;1.00
5592;DHT22;2818;49.790;9.958;2022-09-13T15:38:23;23.00;1.00
5592;DHT22;2818;49.790;9.958;2022-09-13T15:41:17;22.90;1.00
5592;DHT22;2818;49.790;9.958;2022-09-13T15:43:48;22.80;1.00
5592;DHT22;2818;49.790;9.958;2022-09-13T15:46:16;22.60;44.40
5592;DHT22;2818;49.790;9.958;2022-09-13T15:48:53;22.60;99.90
5592;DHT22;2818;49.790;9.958;2022-09-13T15:51:21;22.60;99.90
5592;DHT22;2818;49.790;9.958;2022-09-13T15:53:48;22.50;99.90
5592;DHT22;2818;49.790;9.958;2022-09-13T15:56:19;22.40;99.90
5592;DHT22;2818;49.790;9.958;2022-09-13T15:58:46;22.30;99.90
5592;DHT22;2818;49.790;9.958;2022-09-13T16:01:14;22.30;1.00
5592;DHT22;2818;49.790;9.958;2022-09-13T16:03:42;22.30;1.00
5592;DHT22;2818;49.790;9.958;2022-09-13T16:06:09;22.20;99.90
5592;DHT22;2818;49.790;9.958;2022-09-13T16:08:37;22.20;99.90
5592;DHT22;2818;49.790;9.958;2022-09-13T16:11:05;22.20;1.00
5592;DHT22;2818;49.790;9.958;2022-09-13T16:13:32;22.20;99.90
5592;DHT22;2818;49.790;9.958;2022-09-13T16:15:59;22.10;99.90
5592;DHT22;2818;49.790;9.958;2022-09-13T16:18:27;22.10;1.00
5592;DHT22;2818;49.790;9.958;2022-09-13T16:20:54;22.10;99.90
5592;DHT22;2818;49.790;9.958;2022-09-13T16:23:21;22.10;99.90
5592;DHT22;2818;49.790;9.958;2022-09-13T16:25:51;22.10;1.00
5592;DHT22;2818;49.790;9.958;2022-09-13T16:28:19;22.10;41.30
5592;DHT22;2818;49.790;9.958;2022-09-13T16:30:47;22.00;90.20
5592;DHT22;2818;49.790;9.958;2022-09-13T16:33:14;22.00;1.00
5592;DHT22;2818;49.790;9.958;2022-09-13T16:35:41;21.80;1.00
5592;DHT22;2818;49.790;9.958;2022-09-13T16:38:09;21.70;99.90
5592;DHT22;2818;49.790;9.958;2022-09-13T16:40:40;21.70;98.90
5592;DHT22;2818;49.790;9.958;2022-09-13T16:43:08;21.70;99.90
5592;DHT22;2818;49.790;9.958;2022-09-13T16:45:39;21.60;99.90
5592;DHT22;2818;49.790;9.958;2022-09-13T16:48:07;21.60;99.90
5592;DHT22;2818;49.790;9.958;2022-09-13T16:50:34;21.60;99.90
5592;DHT22;2818;49.790;9.958;2022-09-13T16:53:04;21.50;99.90
5592;DHT22;2818;49.790;9.958;2022-09-13T16:55:31;21.50;24.30
5592;DHT22;2818;49.790;9.958;2022-09-13T16:57:59;21.50;99.90
5592;DHT22;2818;49.790;9.958;2022-09-13T17:00:26;21.50;1.00
5592;DHT22;2818;49.790;9.958;2022-09-13T17:02:55;21.50;1.00
5592;DHT22;2818;49.790;9.958;2022-09-13T17:05:22;21.40;1.00
5592;DHT22;2818;49.790;9.958;2022-09-13T17:07:50;21.40;1.00
5592;DHT22;2818;49.790;9.958;2022-09-13T17:10:19;21.40;1.00
5592;DHT22;2818;49.790;9.958;2022-09-13T17:12:46;21.40;1.00
5592;DHT22;2818;49.790;9.958;2022-09-13T17:15:13;21.30;24.30
5592;DHT22;2818;49.790;9.958;2022-09-13T17:17:40;21.30;1.00
5592;DHT22;2818;49.790;9.958;2022-09-13T17:20:09;21.30;1.00
5592;DHT22;2818;49.790;9.958;2022-09-13T17:22:36;21.30;1.00
5592;DHT22;2818;49.790;9.958;2022-09-13T17:25:04;21.30;1.00
5592;DHT22;2818;49.790;9.958;2022-09-13T17:27:33;21.20;1.00
5592;DHT22;2818;49.790;9.958;2022-09-13T17:30:01;21.20;1.00
5592;DHT22;2818;49.790;9.958;2022-09-13T17:32:31;21.20;99.90
5592;DHT22;2818;49.790;9.958;2022-09-13T17:34:58;21.20;1.00
5592;DHT22;2818;49.790;9.958;2022-09-13T17:37:25;21.20;1.00
5592;DHT22;2818;49.790;9.958;2022-09-13T17:39:52;21.10;99.90
5592;DHT22;2818;49.790;9.958;2022-09-13T17:42:19;21.10;1.00
5592;DHT22;2818;49.790;9.958;2022-09-13T17:44:49;21.10;1.00
5592;DHT22;2818;49.790;9.958;2022-09-13T17:47:16;21.10;1.00
5592;DHT22;2818;49.790;9.958;2022-09-13T17:49:43;21.10;99.90
5592;DHT22;2818;49.790;9.958;2022-09-13T17:52:12;21.10;99.90
5592;DHT22;2818;49.790;9.958;2022-09-13T17:54:39;21.00;1.00
5592;DHT22;2818;49.790;9.958;2022-09-13T17:57:06;21.00;1.00
5592;DHT22;2818;49.790;9.958;2022-09-13T17:59:33;21.00;1.00
5592;DHT22;2818;49.790;9.958;2022-09-13T18:02:00;20.90;99.90
5592;DHT22;2818;49.790;9.958;2022-09-13T18:04:27;20.90;99.90
5592;DHT22;2818;49.790;9.958;2022-09-13T18:06:54;20.90;99.90
5592;DHT22;2818;49.790;9.958;2022-09-13T18:09:22;20.80;1.00
5592;DHT22;2818;49.790;9.958;2022-09-13T18:11:50;20.80;1.00
5592;DHT22;2818;49.790;9.958;2022-09-13T18:14:18;20.80;99.90
5592;DHT22;2818;49.790;9.958;2022-09-13T18:16:45;20.80;99.90
5592;DHT22;2818;49.790;9.958;2022-09-13T18:19:15;20.80;1.00
5592;DHT22;2818;49.790;9.958;2022-09-13T18:21:42;20.80;1.00
5592;DHT22;2818;49.790;9.958;2022-09-13T18:24:09;20.70;1.00
5592;DHT22;2818;49.790;9.958;2022-09-13T18:26:36;20.70;1.00
5592;DHT22;2818;49.790;9.958;2022-09-13T18:29:06;20.60;1.00
5592;DHT22;2818;49.790;9.958;2022-09-13T18:31:35;20.60;1.00
5592;DHT22;2818;49.790;9.958;2022-09-13T18:34:09;20.60;1.00
5592;DHT22;2818;49.790;9.958;2022-09-13T18:36:38;20.60;1.00
5592;DHT22;2818;49.790;9.958;2022-09-13T18:39:07;20.60;1.00
5592;DHT22;2818;49.790;9.958;2022-09-13T18:41:36;20.50;1.00
5592;DHT22;2818;49.790;9.958;2022-09-13T18:44:07;20.50;1.00
5592;DHT22;2818;49.790;9.958;2022-09-13T18:46:35;20.50;1.00
5592;DHT22;2818;49.790;9.958;2022-09-13T18:49:03;20.50;1.00
5592;DHT22;2818;49.790;9.958;2022-09-13T18:51:32;20.50;1.00
5592;DHT22;2818;49.790;9.958;2022-09-13T18:54:00;20.50;1.00
5592;DHT22;2818;49.790;9.958;2022-09-13T18:56:27;20.50;1.00
5592;DHT22;2818;49.790;9.958;2022-09-13T18:58:55;20.40;1.00
5592;DHT22;2818;49.790;9.958;2022-09-13T19:01:26;20.40;1.00
5592;DHT22;2818;49.790;9.958;2022-09-13T19:03:58;20.40;1.00
5592;DHT22;2818;49.790;9.958;2022-09-13T19:08:58;20.30;1.00
5592;DHT22;2818;49.790;9.958;2022-09-13T19:11:28;20.30;1.00
5592;DHT22;2818;49.790;9.958;2022-09-13T19:14:16;20.30;1.00
5592;DHT22;2818;49.790;9.958;2022-09-13T19:16:44;20.30;1.00
5592;DHT22;2818;49.790;9.958;2022-09-13T19:19:11;20.30;1.00
5592;DHT22;2818;49.790;9.958;2022-09-13T19:21:38;20.20;1.00
5592;DHT22;2818;49.790;9.958;2022-09-13T19:24:05;20.20;1.00
5592;DHT22;2818;49.790;9.958;2022-09-13T19:26:38;20.20;1.00
5592;DHT22;2818;49.790;9.958;2022-09-13T19:29:09;20.20;1.00
5592;DHT22;2818;49.790;9.958;2022-09-13T19:31:39;20.20;1.00
5592;DHT22;2818;49.790;9.958;2022-09-13T19:34:07;20.20;1.00
5592;DHT22;2818;49.790;9.958;2022-09-13T19:36:36;20.10;1.00
5592;DHT22;2818;49.790;9.958;2022-09-13T19:39:05;20.10;7.50
5592;DHT22;2818;49.790;9.958;2022-09-13T19:41:32;20.10;9.90
5592;DHT22;2818;49.790;9.958;2022-09-13T19:44:00;20.10;17.30
5592;DHT22;2818;49.790;9.958;2022-09-13T19:46:33;20.00;25.90
5592;DHT22;2818;49.790;9.958;2022-09-13T19:49:01;20.00;18.50
5592;DHT22;2818;49.790;9.958;2022-09-13T19:51:34;20.00;10.60
5592;DHT22;2818;49.790;9.958;2022-09-13T19:54:03;20.00;4.00
5592;DHT22;2818;49.790;9.958;2022-09-13T19:56:36;19.90;17.30
5592;DHT22;2818;49.790;9.958;2022-09-13T19:59:06;19.90;14.80
5592;DHT22;2818;49.790;9.958;2022-09-13T20:01:38;19.90;20.10
5592;DHT22;2818;49.790;9.958;2022-09-13T20:04:09;19.90;14.30
5592;DHT22;2818;49.790;9.958;2022-09-13T20:06:44;19.90;1.40
5592;DHT22;2818;49.790;9.958;2022-09-13T20:09:13;19.80;5.30
5592;DHT22;2818;49.790;9.958;2022-09-13T20:11:40;19.90;17.10
5592;DHT22;2818;49.790;9.958;2022-09-13T20:14:12;19.90;18.90